Time;durP1;ratioP1;P1;durP2;ratioP2;P2;SDS_P1;SDS_P2;PMS_P1;PMS_P2;Temp;Humidity;BMP_temperature;BMP_pressure;BME280_temperature;BME280_humidity;BME280_pressure;Samples;Min_cycle;Max_cycle;Signal;HPM_P1;HPM_P2
2022/10/25 00:00:58;;;;;;;9.05;6.70;;;12.10;99.90;;;;;;2064191;28;20030;-72
2022/10/25 00:01:58;;;;;;;8.20;6.60;;;12.10;99.90;;;;;;2064420;28;20030;-73
2022/10/25 00:02:59;;;;;;;9.60;6.57;;;12.10;99.90;;;;;;2064985;28;20374;-72
2022/10/25 00:04:00;;;;;;;9.13;6.80;;;12.00;99.90;;;;;;2064155;28;20890;-71
2022/10/25 00:05:01;;;;;;;9.90;6.88;;;12.00;99.90;;;;;;2055473;28;20545;-72
2022/10/25 00:06:02;;;;;;;10.63;7.18;;;12.00;99.90;;;;;;2064044;28;20443;-73
2022/10/25 00:07:02;;;;;;;10.15;6.65;;;12.00;99.90;;;;;;2063957;28;20057;-72
2022/10/25 00:08:03;;;;;;;9.52;6.82;;;11.90;99.90;;;;;;2056602;28;20050;-72
2022/10/25 00:09:04;;;;;;;10.30;6.93;;;12.00;99.90;;;;;;2072094;28;20029;-72
2022/10/25 00:10:05;;;;;;;10.20;6.50;;;11.90;99.90;;;;;;2072764;28;20065;-72
2022/10/25 00:11:07;;;;;;;9.35;6.53;;;11.90;99.90;;;;;;2072694;28;20068;-73
2022/10/25 00:12:08;;;;;;;7.72;6.30;;;11.80;99.90;;;;;;2072630;28;20451;-73
2022/10/25 00:13:08;;;;;;;7.85;6.38;;;11.80;99.90;;;;;;2072777;28;20029;-72
2022/10/25 00:14:09;;;;;;;11.55;6.90;;;11.80;99.90;;;;;;2080006;28;20021;-73
2022/10/25 00:15:13;;;;;;;11.43;7.13;;;11.80;99.90;;;;;;2079803;28;20041;-72
2022/10/25 00:16:15;;;;;;;9.82;6.85;;;11.80;99.90;;;;;;2080336;28;20084;-72
2022/10/25 00:17:16;;;;;;;10.13;6.55;;;11.80;99.90;;;;;;2080005;28;20105;-73
2022/10/25 00:18:16;;;;;;;9.02;6.75;;;11.80;99.90;;;;;;2080153;28;20488;-72
2022/10/25 00:19:17;;;;;;;8.93;6.30;;;11.80;99.90;;;;;;2080434;28;20459;-72
2022/10/25 00:20:18;;;;;;;8.38;6.22;;;11.80;99.90;;;;;;2072799;28;20117;-71
2022/10/25 00:21:19;;;;;;;7.50;6.18;;;11.80;99.90;;;;;;2072986;28;20051;-71
2022/10/25 00:22:20;;;;;;;7.90;6.03;;;11.70;99.90;;;;;;2073010;28;20037;-73
2022/10/25 00:23:20;;;;;;;8.35;6.20;;;11.80;99.90;;;;;;2072984;28;20502;-73
2022/10/25 00:24:21;;;;;;;9.02;6.72;;;11.80;99.90;;;;;;2072820;28;20026;-73
2022/10/25 00:25:22;;;;;;;12.07;7.40;;;11.80;99.90;;;;;;2071542;28;20072;-73
2022/10/25 00:26:22;;;;;;;12.00;7.45;;;11.80;99.90;;;;;;2065551;28;20109;-73
2022/10/25 00:27:23;;;;;;;9.95;7.45;;;11.80;99.90;;;;;;2071578;28;20056;-72
2022/10/25 00:28:24;;;;;;;12.68;8.15;;;11.80;99.90;;;;;;2073213;28;20037;-73
2022/10/25 00:29:24;;;;;;;11.50;7.72;;;11.80;99.90;;;;;;2072355;28;20050;-73
2022/10/25 00:30:25;;;;;;;9.55;7.57;;;11.90;99.90;;;;;;2072463;28;20554;-72
2022/10/25 00:31:25;;;;;;;10.63;7.03;;;11.80;99.90;;;;;;2072704;28;20045;-72
2022/10/25 00:32:26;;;;;;;8.98;7.00;;;11.80;99.90;;;;;;2072812;28;20033;-75
2022/10/25 00:33:31;;;;;;;9.95;6.78;;;11.80;99.90;;;;;;2072665;28;20115;-73
2022/10/25 00:34:32;;;;;;;9.10;6.40;;;11.80;99.90;;;;;;2072089;28;20028;-78
2022/10/25 00:35:35;;;;;;;9.85;6.65;;;11.80;99.90;;;;;;2071515;28;20037;-72
2022/10/25 00:36:35;;;;;;;9.52;6.43;;;11.80;99.90;;;;;;2072734;28;20026;-72
2022/10/25 00:37:36;;;;;;;9.60;6.80;;;11.80;99.90;;;;;;2072716;28;20033;-72
2022/10/25 00:38:37;;;;;;;10.60;6.93;;;11.80;99.90;;;;;;2072753;28;20054;-72
2022/10/25 00:39:38;;;;;;;10.75;6.50;;;11.80;99.90;;;;;;2071951;28;20494;-72
2022/10/25 00:40:38;;;;;;;8.75;6.22;;;11.80;99.90;;;;;;2071984;28;20026;-72
2022/10/25 00:41:39;;;;;;;7.30;5.70;;;11.80;99.90;;;;;;2072155;28;20492;-72
2022/10/25 00:42:40;;;;;;;8.65;6.05;;;11.80;99.90;;;;;;2072438;28;20022;-72
2022/10/25 00:43:54;;;;;;;9.07;5.88;;;11.80;99.90;;;;;;2072586;28;20045;-70
2022/10/25 00:45:00;;;;;;;7.68;5.95;;;11.70;99.90;;;;;;2072288;28;20029;-72
2022/10/25 00:46:07;;;;;;;7.57;5.88;;;11.80;99.90;;;;;;2079906;28;20033;-72
2022/10/25 00:47:24;;;;;;;10.25;6.22;;;11.80;99.90;;;;;;2079682;28;20022;-72
2022/10/25 00:48:25;;;;;;;8.52;5.85;;;11.80;99.90;;;;;;2072288;28;20112;-73
2022/10/25 00:49:25;;;;;;;8.27;5.70;;;11.70;99.90;;;;;;2073659;28;20049;-71
2022/10/25 00:50:34;;;;;;;8.60;6.10;;;11.70;99.90;;;;;;2072826;28;20037;-74
2022/10/25 00:51:44;;;;;;;9.70;5.75;;;11.70;99.90;;;;;;2072896;28;20049;-71
2022/10/25 00:52:49;;;;;;;7.95;5.28;;;11.70;99.90;;;;;;2073365;28;20029;-71
2022/10/25 00:53:50;;;;;;;7.43;5.80;;;11.70;99.90;;;;;;2072981;28;20037;-71
2022/10/25 00:54:52;;;;;;;9.85;6.07;;;11.70;99.90;;;;;;2072200;28;20028;-71
2022/10/25 00:56:15;;;;;;;8.05;5.90;;;11.70;99.90;;;;;;2071966;28;20113;-71
2022/10/25 00:57:30;;;;;;;7.93;5.70;;;11.70;99.90;;;;;;2072736;28;20041;-71
2022/10/25 00:58:34;;;;;;;6.07;5.45;;;11.70;99.90;;;;;;2072694;28;20447;-71
2022/10/25 00:59:35;;;;;;;7.47;5.80;;;11.70;99.90;;;;;;2072512;28;20477;-71
2022/10/25 01:00:36;;;;;;;8.25;5.78;;;11.70;99.90;;;;;;2072484;28;20074;-71
2022/10/25 01:01:37;;;;;;;7.93;5.60;;;11.70;99.90;;;;;;2072578;28;20036;-72
2022/10/25 01:02:38;;;;;;;6.63;5.07;;;11.70;99.90;;;;;;2072943;28;20033;-71
2022/10/25 01:03:41;;;;;;;10.02;5.40;;;11.70;99.90;;;;;;2073412;28;20050;-73
2022/10/25 01:04:42;;;;;;;10.15;5.75;;;11.70;99.90;;;;;;2071857;28;20022;-71
2022/10/25 01:05:44;;;;;;;8.35;5.32;;;11.70;99.90;;;;;;2071133;28;20061;-71
2022/10/25 01:06:47;;;;;;;7.30;5.40;;;11.70;99.90;;;;;;2072260;28;20042;-72
2022/10/25 01:07:48;;;;;;;8.25;5.82;;;11.60;99.90;;;;;;2072480;28;20021;-71
2022/10/25 01:08:51;;;;;;;7.63;5.45;;;11.70;99.90;;;;;;2072488;28;20029;-72
2022/10/25 01:09:53;;;;;;;7.40;5.65;;;11.60;99.90;;;;;;2079868;28;20168;-72
2022/10/25 01:10:53;;;;;;;6.70;5.38;;;11.60;99.90;;;;;;2079804;28;20519;-72
2022/10/25 01:11:54;;;;;;;6.80;5.28;;;11.70;99.90;;;;;;2071640;28;20022;-71
2022/10/25 01:12:54;;;;;;;9.20;5.95;;;11.70;99.90;;;;;;2071644;28;20086;-72
2022/10/25 01:13:56;;;;;;;9.40;5.97;;;11.70;99.90;;;;;;2071830;28;20038;-72
2022/10/25 01:14:57;;;;;;;11.43;6.38;;;11.70;99.90;;;;;;2071386;28;20097;-72
2022/10/25 01:16:11;;;;;;;10.95;6.40;;;11.80;99.90;;;;;;2071897;28;20618;-72
2022/10/25 01:17:30;;;;;;;9.20;5.88;;;11.80;99.90;;;;;;2073219;28;20380;-73
2022/10/25 01:18:46;;;;;;;10.38;6.07;;;11.80;99.90;;;;;;2072775;28;20193;-70
2022/10/25 01:19:47;;;;;;;8.88;5.80;;;11.90;99.90;;;;;;2071977;28;20053;-72
2022/10/25 01:21:27;;;;;;;8.98;6.13;;;12.00;99.90;;;;;;2072205;28;20053;-72
2022/10/25 01:22:38;;;;;;;8.98;5.90;;;12.00;99.90;;;;;;2071808;28;20077;-71
2022/10/25 01:23:47;;;;;;;7.88;5.50;;;12.00;99.90;;;;;;2071714;28;20040;-72
2022/10/25 01:24:59;;;;;;;9.70;5.90;;;12.00;99.90;;;;;;2072080;28;20018;-72
2022/10/25 01:26:09;;;;;;;12.50;6.40;;;12.00;99.90;;;;;;2072188;28;20037;-72
2022/10/25 01:27:21;;;;;;;9.50;6.17;;;12.00;99.90;;;;;;2071661;28;20050;-73
2022/10/25 01:28:53;;;;;;;9.82;6.22;;;12.00;99.90;;;;;;2071674;28;20265;-72
2022/10/25 01:30:10;;;;;;;9.57;5.70;;;12.00;99.90;;;;;;2072335;28;20034;-72
2022/10/25 01:31:41;;;;;;;10.02;5.43;;;12.00;99.90;;;;;;2071651;28;20034;-71
2022/10/25 01:33:10;;;;;;;9.25;5.97;;;12.00;99.90;;;;;;2067308;28;20467;-71
2022/10/25 01:34:32;;;;;;;7.80;5.53;;;12.00;99.90;;;;;;2051504;28;20182;-71
2022/10/25 01:35:48;;;;;;;8.73;6.20;;;11.90;99.90;;;;;;2071653;28;20025;-71
2022/10/25 01:37:00;;;;;;;8.48;5.45;;;11.90;99.90;;;;;;2063538;28;20019;-71
2022/10/25 01:38:16;;;;;;;10.80;5.35;;;11.90;99.90;;;;;;2065171;28;20337;-71
2022/10/25 01:39:31;;;;;;;7.20;5.18;;;11.80;99.90;;;;;;2072479;28;20030;-71
2022/10/25 01:41:02;;;;;;;6.75;5.00;;;11.80;99.90;;;;;;2072280;28;20046;-71
2022/10/25 01:42:07;;;;;;;;;;;11.80;99.90;;;;;;2064829;28;20057;-71
2022/10/25 01:43:23;;;;;;;8.77;5.97;;;11.70;99.90;;;;;;2072396;28;19913;-71
2022/10/25 01:44:46;;;;;;;7.63;5.82;;;11.70;99.90;;;;;;2071979;28;20038;-71
2022/10/25 01:46:12;;;;;;;9.82;6.53;;;11.70;99.90;;;;;;2071088;28;20480;-71
2022/10/25 01:47:25;;;;;;;10.82;7.40;;;11.60;99.90;;;;;;2067056;28;20026;-72
2022/10/25 01:48:31;;;;;;;8.20;6.75;;;11.60;99.90;;;;;;2072114;28;20045;-72
2022/10/25 01:49:49;;;;;;;10.23;7.00;;;11.60;99.90;;;;;;2072334;28;20034;-71
2022/10/25 01:50:50;;;;;;;10.68;6.97;;;11.60;99.90;;;;;;2072513;28;20018;-72
2022/10/25 01:51:50;;;;;;;8.02;6.78;;;11.50;99.90;;;;;;2072238;28;20033;-72
2022/10/25 01:52:51;;;;;;;9.18;6.55;;;11.50;99.90;;;;;;2071947;28;20038;-71
2022/10/25 01:53:52;;;;;;;9.57;6.35;;;11.50;99.90;;;;;;2072245;28;20045;-72
2022/10/25 01:54:52;;;;;;;6.82;6.07;;;11.50;99.90;;;;;;2079464;28;20041;-71
2022/10/25 01:55:58;;;;;;;6.93;5.97;;;11.50;99.90;;;;;;2079203;28;20026;-72
2022/10/25 01:57:30;;;;;;;7.32;5.97;;;11.50;99.90;;;;;;2071573;28;20041;-72
2022/10/25 01:59:06;;;;;;;9.68;6.25;;;11.50;99.90;;;;;;2071924;28;20104;-71
2022/10/25 02:00:18;;;;;;;8.75;6.00;;;11.40;99.90;;;;;;2061060;28;20080;-71
2022/10/25 02:01:59;;;;;;;9.10;6.18;;;11.40;99.90;;;;;;2065123;28;20075;-74
2022/10/25 02:03:05;;;;;;;7.93;5.85;;;11.40;99.90;;;;;;2071865;28;20117;-73
2022/10/25 02:04:19;;;;;;;6.97;5.82;;;11.40;99.90;;;;;;2079404;28;20434;-72
2022/10/25 02:05:31;;;;;;;8.57;5.93;;;11.40;99.90;;;;;;2079532;28;20578;-72
2022/10/25 02:07:22;;;;;;;8.52;5.60;;;11.40;99.90;;;;;;2071861;28;20018;-72
2022/10/25 02:08:40;;;;;;;10.02;5.53;;;11.40;99.90;;;;;;2037624;29;20039;-71
2022/10/25 02:09:58;;;;;;;8.02;5.68;;;11.30;99.90;;;;;;2041284;29;20043;-71
2022/10/25 02:10:58;;;;;;;7.82;6.10;;;11.30;99.90;;;;;;2063906;28;20053;-71
2022/10/25 02:12:02;;;;;;;8.07;5.85;;;11.30;99.90;;;;;;2072418;28;20032;-71
2022/10/25 02:13:21;;;;;;;8.50;5.72;;;11.30;99.90;;;;;;2072269;28;20484;-72
2022/10/25 02:14:36;;;;;;;9.30;5.90;;;11.30;99.90;;;;;;2072032;28;20123;-72
2022/10/25 02:15:49;;;;;;;7.75;5.68;;;11.30;99.90;;;;;;2062939;28;20038;-72
2022/10/25 02:19:14;;;;;;;;;;;11.30;99.90;;;;;;2072865;28;20097;-71
2022/10/25 02:20:17;;;;;;;9.32;6.15;;;11.30;99.90;;;;;;2072946;28;20390;-73
2022/10/25 02:21:19;;;;;;;8.60;6.20;;;11.30;99.90;;;;;;2072751;28;20041;-71
2022/10/25 02:22:25;;;;;;;8.65;6.18;;;11.30;99.90;;;;;;2073095;28;20030;-72
2022/10/25 02:23:27;;;;;;;7.40;5.68;;;11.30;99.90;;;;;;2079806;28;20415;-71
2022/10/25 02:24:30;;;;;;;9.95;6.10;;;11.30;99.90;;;;;;2071110;28;20029;-70
2022/10/25 02:25:35;;;;;;;7.85;5.65;;;11.30;99.90;;;;;;2071337;28;20056;-70
2022/10/25 02:26:39;;;;;;;7.38;5.60;;;11.30;99.90;;;;;;2071985;28;20030;-71
2022/10/25 02:27:40;;;;;;;8.65;5.93;;;11.30;99.90;;;;;;2071246;28;20423;-70
2022/10/25 02:28:41;;;;;;;10.70;6.10;;;11.30;99.90;;;;;;2072117;28;20657;-70
2022/10/25 02:29:44;;;;;;;7.53;6.00;;;11.30;99.90;;;;;;2071833;28;20125;-70
2022/10/25 02:30:45;;;;;;;9.43;5.78;;;11.40;99.90;;;;;;2071840;28;20030;-70
2022/10/25 02:31:45;;;;;;;10.27;5.50;;;11.40;99.90;;;;;;2071805;28;20153;-71
2022/10/25 02:32:46;;;;;;;9.07;6.00;;;11.30;99.90;;;;;;2071930;28;20014;-71
2022/10/25 02:33:47;;;;;;;11.13;5.90;;;11.40;99.90;;;;;;2072065;28;20264;-72
2022/10/25 02:34:48;;;;;;;7.95;5.40;;;11.40;99.90;;;;;;2071547;28;20443;-70
2022/10/25 02:36:14;;;;;;;7.13;5.40;;;11.40;99.90;;;;;;2071261;28;20034;-71
2022/10/25 02:37:15;;;;;;;9.85;5.40;;;11.40;99.90;;;;;;2074134;28;20029;-71
2022/10/25 02:38:15;;;;;;;8.98;5.30;;;11.40;99.90;;;;;;2079170;28;20100;-71
2022/10/25 02:39:18;;;;;;;6.93;5.45;;;11.40;99.90;;;;;;2071942;28;20030;-71
2022/10/25 02:40:20;;;;;;;7.82;5.60;;;11.40;99.90;;;;;;2071893;28;20049;-71
2022/10/25 02:41:22;;;;;;;9.07;5.50;;;11.50;99.90;;;;;;2071666;28;20465;-70
2022/10/25 02:42:23;;;;;;;9.90;5.50;;;11.50;99.90;;;;;;2079186;28;20405;-71
2022/10/25 02:43:23;;;;;;;6.80;5.10;;;11.50;99.90;;;;;;2079430;28;20090;-71
2022/10/25 02:44:24;;;;;;;7.75;5.18;;;11.50;99.90;;;;;;2071826;28;20084;-71
2022/10/25 02:45:25;;;;;;;8.77;5.30;;;11.50;99.90;;;;;;2071816;28;20377;-71
2022/10/25 02:46:25;;;;;;;7.45;5.22;;;11.50;99.90;;;;;;2079544;28;20692;-71
2022/10/25 02:47:26;;;;;;;6.65;5.22;;;11.50;99.90;;;;;;2079438;28;20046;-71
2022/10/25 02:48:27;;;;;;;7.05;5.20;;;11.50;99.90;;;;;;2072210;28;20500;-71
2022/10/25 02:49:27;;;;;;;7.50;4.80;;;11.50;99.90;;;;;;2071933;28;20030;-70
2022/10/25 02:50:28;;;;;;;7.28;4.93;;;11.50;99.90;;;;;;2071864;28;20074;-70
2022/10/25 02:51:29;;;;;;;6.22;5.20;;;11.50;99.90;;;;;;2072057;28;20022;-72
2022/10/25 02:52:30;;;;;;;7.88;5.45;;;11.50;99.90;;;;;;2071955;28;20037;-72
2022/10/25 02:53:31;;;;;;;8.68;5.55;;;11.50;99.90;;;;;;2071809;28;20030;-72
2022/10/25 02:54:31;;;;;;;6.75;5.40;;;11.50;99.90;;;;;;2071894;28;20112;-72
2022/10/25 02:55:32;;;;;;;7.57;5.28;;;11.60;99.90;;;;;;2071911;28;20025;-72
2022/10/25 02:56:32;;;;;;;9.07;5.65;;;11.60;99.90;;;;;;2079455;28;20030;-72
2022/10/25 02:57:35;;;;;;;7.65;5.90;;;11.60;99.90;;;;;;2070911;28;20026;-72
2022/10/25 02:58:38;;;;;;;6.18;5.18;;;11.60;99.90;;;;;;2063362;28;20122;-71
2022/10/25 02:59:38;;;;;;;8.23;4.93;;;11.70;99.90;;;;;;2071096;28;20676;-72
2022/10/25 03:00:40;;;;;;;7.05;4.88;;;11.70;99.90;;;;;;2079413;28;20069;-72
2022/10/25 03:01:40;;;;;;;6.50;4.88;;;11.70;99.90;;;;;;2079462;28;20466;-72
2022/10/25 03:02:41;;;;;;;9.15;5.38;;;11.70;99.90;;;;;;2072132;28;20132;-72
2022/10/25 03:03:42;;;;;;;6.00;4.80;;;11.80;99.90;;;;;;2071226;28;20112;-72
2022/10/25 03:04:42;;;;;;;5.95;4.90;;;11.80;99.90;;;;;;2062720;28;20030;-73
2022/10/25 03:05:44;;;;;;;6.78;4.90;;;11.80;99.90;;;;;;2071226;28;20030;-71
2022/10/25 03:06:44;;;;;;;6.88;4.70;;;11.80;99.90;;;;;;2071621;28;20032;-72
2022/10/25 03:07:45;;;;;;;8.70;5.30;;;11.80;99.90;;;;;;2071286;28;20403;-73
2022/10/25 03:08:46;;;;;;;6.03;4.80;;;11.80;99.90;;;;;;2071934;28;20028;-72
2022/10/25 03:09:47;;;;;;;5.93;4.70;;;11.90;99.90;;;;;;2071706;28;20084;-73
2022/10/25 03:10:49;;;;;;;8.02;4.65;;;11.80;99.90;;;;;;2072030;28;20830;-72
2022/10/25 03:11:50;;;;;;;9.18;5.13;;;11.90;99.90;;;;;;2071995;28;20026;-72
2022/10/25 03:12:51;;;;;;;7.80;4.70;;;11.90;99.90;;;;;;2071735;28;20034;-72
2022/10/25 03:13:51;;;;;;;5.70;4.82;;;11.90;99.90;;;;;;2071476;28;20049;-72
2022/10/25 03:14:52;;;;;;;7.72;4.82;;;11.90;99.90;;;;;;2071637;28;20030;-72
2022/10/25 03:15:52;;;;;;;5.00;4.47;;;11.90;99.90;;;;;;2079641;28;20534;-72
2022/10/25 03:16:53;;;;;;;6.32;4.57;;;11.90;99.90;;;;;;2079844;28;20041;-72
2022/10/25 03:17:54;;;;;;;5.45;4.50;;;11.90;99.90;;;;;;2071608;28;20721;-72
2022/10/25 03:18:58;;;;;;;5.93;4.60;;;11.90;99.90;;;;;;2072169;28;20042;-72
2022/10/25 03:19:58;;;;;;;5.90;4.60;;;11.90;99.90;;;;;;2079545;28;20029;-73
2022/10/25 03:21:01;;;;;;;7.47;5.13;;;11.90;99.90;;;;;;2079770;28;20129;-72
2022/10/25 03:22:01;;;;;;;6.47;4.65;;;11.90;99.90;;;;;;2071249;28;20037;-73
2022/10/25 03:23:02;;;;;;;5.40;4.80;;;11.90;99.90;;;;;;2071720;28;20062;-73
2022/10/25 03:24:03;;;;;;;5.75;4.97;;;11.90;99.90;;;;;;2072219;28;20034;-72
2022/10/25 03:25:04;;;;;;;7.18;5.75;;;11.90;99.90;;;;;;2072238;28;20026;-73
2022/10/25 03:26:05;;;;;;;9.70;5.78;;;11.80;99.90;;;;;;2071763;28;20038;-72
2022/10/25 03:27:05;;;;;;;7.63;5.90;;;11.80;99.90;;;;;;2070721;28;20444;-72
2022/10/25 03:28:07;;;;;;;9.27;6.13;;;11.80;99.90;;;;;;2070874;28;20050;-72
2022/10/25 03:29:07;;;;;;;6.68;5.57;;;11.80;99.90;;;;;;2087609;28;20368;-72
2022/10/25 03:30:08;;;;;;;7.20;5.72;;;11.80;99.90;;;;;;2086421;28;20079;-71
2022/10/25 03:31:14;;;;;;;8.68;5.70;;;11.80;99.90;;;;;;2069646;28;20030;-72
2022/10/25 03:32:15;;;;;;;7.78;5.85;;;11.80;99.90;;;;;;2071850;28;20084;-73
2022/10/25 03:33:16;;;;;;;10.88;5.97;;;11.70;99.90;;;;;;2070972;28;20106;-72
2022/10/25 03:34:16;;;;;;;7.32;6.07;;;11.70;99.90;;;;;;2071087;28;20030;-71
2022/10/25 03:35:17;;;;;;;8.32;6.18;;;11.70;99.90;;;;;;2071395;28;20052;-70
2022/10/25 03:36:17;;;;;;;7.95;6.13;;;11.70;99.90;;;;;;2071007;28;20128;-70
2022/10/25 03:37:18;;;;;;;8.38;6.10;;;11.60;99.90;;;;;;2054306;28;20058;-69
2022/10/25 03:38:19;;;;;;;8.73;6.10;;;11.60;99.90;;;;;;2054682;28;20051;-71
2022/10/25 03:39:20;;;;;;;8.77;5.68;;;11.60;99.90;;;;;;2070681;28;20108;-69
2022/10/25 03:40:21;;;;;;;8.20;5.60;;;11.60;99.90;;;;;;2070747;28;20044;-70
2022/10/25 03:41:21;;;;;;;8.75;5.72;;;11.50;99.90;;;;;;2071098;28;20034;-70
2022/10/25 03:42:22;;;;;;;7.43;5.65;;;11.50;99.90;;;;;;2079074;28;20478;-70
2022/10/25 03:43:23;;;;;;;7.38;5.93;;;11.50;99.90;;;;;;2072980;28;20036;-69
2022/10/25 03:44:23;;;;;;;7.50;5.55;;;11.50;99.90;;;;;;2072623;28;20183;-70
2022/10/25 03:45:24;;;;;;;6.53;5.28;;;11.40;99.90;;;;;;2073007;28;20037;-70
2022/10/25 03:46:25;;;;;;;6.40;5.30;;;11.40;99.90;;;;;;2072450;28;20464;-71
2022/10/25 03:47:26;;;;;;;6.80;5.28;;;11.40;99.90;;;;;;2072149;28;20129;-69
2022/10/25 03:48:26;;;;;;;6.88;5.38;;;11.40;99.90;;;;;;2073002;28;20480;-70
2022/10/25 03:49:27;;;;;;;7.25;5.28;;;11.40;99.90;;;;;;2080343;28;20038;-70
2022/10/25 03:50:28;;;;;;;7.90;5.32;;;11.40;99.90;;;;;;2064331;28;20065;-71
2022/10/25 03:51:28;;;;;;;8.68;5.43;;;11.30;99.90;;;;;;2064087;28;20038;-69
2022/10/25 03:52:29;;;;;;;6.85;5.45;;;11.30;99.90;;;;;;2073054;28;20038;-69
2022/10/25 03:53:30;;;;;;;7.72;5.30;;;11.30;99.90;;;;;;2080569;28;20026;-70
2022/10/25 03:54:30;;;;;;;7.30;5.50;;;11.30;99.90;;;;;;2080108;28;20036;-70
2022/10/25 03:55:32;;;;;;;6.63;5.30;;;11.30;99.90;;;;;;2072709;28;20503;-70
2022/10/25 03:56:33;;;;;;;7.78;5.70;;;11.20;99.90;;;;;;2072927;28;20084;-69
2022/10/25 03:57:34;;;;;;;7.63;5.30;;;11.20;99.90;;;;;;2072416;28;20111;-70
2022/10/25 03:58:35;;;;;;;8.68;5.20;;;11.20;99.90;;;;;;2072770;28;20021;-69
2022/10/25 03:59:35;;;;;;;8.25;5.50;;;11.20;99.90;;;;;;2072763;28;20040;-69
2022/10/25 04:00:36;;;;;;;8.50;5.68;;;11.20;99.90;;;;;;2080456;28;20036;-69
2022/10/25 04:01:37;;;;;;;9.63;5.65;;;11.20;99.90;;;;;;2072292;28;20111;-70
2022/10/25 04:02:37;;;;;;;7.70;5.80;;;11.20;99.90;;;;;;2072291;28;20053;-71
2022/10/25 04:03:38;;;;;;;8.48;5.70;;;11.20;99.90;;;;;;2072463;28;20041;-71
2022/10/25 04:04:39;;;;;;;7.13;5.55;;;11.20;99.90;;;;;;2071780;28;20045;-72
2022/10/25 04:05:39;;;;;;;6.50;5.50;;;11.20;99.90;;;;;;2072737;28;20037;-71
2022/10/25 04:06:40;;;;;;;9.75;5.65;;;11.20;99.90;;;;;;2072914;28;20033;-71
2022/10/25 04:07:41;;;;;;;8.23;6.07;;;11.20;99.90;;;;;;2072455;28;20377;-72
2022/10/25 04:08:41;;;;;;;8.73;5.75;;;11.20;99.90;;;;;;2072964;28;20021;-70
2022/10/25 04:09:42;;;;;;;9.63;5.70;;;11.20;99.90;;;;;;2073024;28;20075;-70
2022/10/25 04:10:43;;;;;;;8.48;5.75;;;11.20;99.90;;;;;;2072981;28;20060;-71
2022/10/25 04:11:43;;;;;;;8.63;5.68;;;11.20;99.90;;;;;;2072436;28;20096;-72
2022/10/25 04:12:45;;;;;;;9.43;5.70;;;11.30;99.90;;;;;;2072121;28;20026;-71
2022/10/25 04:13:45;;;;;;;7.88;5.68;;;11.30;99.90;;;;;;2080429;28;20104;-75
2022/10/25 04:14:46;;;;;;;14.68;6.32;;;11.30;99.90;;;;;;2072357;28;20021;-73
2022/10/25 04:15:47;;;;;;;9.23;6.15;;;11.30;99.90;;;;;;2072815;28;20034;-72
2022/10/25 04:16:47;;;;;;;9.55;5.93;;;11.40;99.90;;;;;;2072807;28;20050;-72
2022/10/25 04:17:49;;;;;;;9.65;5.95;;;11.40;99.90;;;;;;2072431;28;20420;-72
2022/10/25 04:18:52;;;;;;;8.73;6.00;;;11.50;99.90;;;;;;2072567;28;20037;-74
2022/10/25 04:19:52;;;;;;;8.98;5.40;;;11.50;99.90;;;;;;2072877;28;20030;-72
2022/10/25 04:20:53;;;;;;;10.35;6.03;;;11.50;99.90;;;;;;2072266;28;20117;-72
2022/10/25 04:21:54;;;;;;;7.95;5.60;;;11.50;99.90;;;;;;2072253;28;20033;-71
2022/10/25 04:22:55;;;;;;;10.55;5.97;;;11.50;99.90;;;;;;2072910;28;20021;-75
2022/10/25 04:23:56;;;;;;;8.85;5.50;;;11.60;99.90;;;;;;2072917;28;20034;-73
2022/10/25 04:24:57;;;;;;;7.53;5.22;;;11.70;99.90;;;;;;2072779;28;20239;-73
2022/10/25 04:25:57;;;;;;;7.85;5.28;;;11.70;99.90;;;;;;2072540;28;20038;-70
2022/10/25 04:26:58;;;;;;;9.00;5.18;;;11.80;99.90;;;;;;2073089;28;20120;-72
2022/10/25 04:27:59;;;;;;;8.73;5.55;;;11.80;99.90;;;;;;2072524;28;20029;-72
2022/10/25 04:28:59;;;;;;;8.50;5.43;;;11.80;99.90;;;;;;2072237;28;20026;-70
2022/10/25 04:30:00;;;;;;;6.32;4.90;;;11.90;99.90;;;;;;2072182;28;20026;-71
2022/10/25 04:31:02;;;;;;;8.18;5.10;;;11.90;99.90;;;;;;2072863;28;20049;-71
2022/10/25 04:32:03;;;;;;;7.80;5.15;;;12.00;99.90;;;;;;2072089;28;20060;-69
2022/10/25 04:33:03;;;;;;;7.95;5.13;;;12.00;99.90;;;;;;2072116;28;20036;-71
2022/10/25 04:34:04;;;;;;;6.95;4.60;;;12.00;99.90;;;;;;2072575;28;20022;-71
2022/10/25 04:35:05;;;;;;;7.32;4.78;;;12.10;99.90;;;;;;2072196;28;20030;-71
2022/10/25 04:36:05;;;;;;;8.55;5.38;;;12.10;99.90;;;;;;2072000;28;20029;-72
2022/10/25 04:37:06;;;;;;;7.90;4.80;;;12.10;99.90;;;;;;2071976;28;20522;-72
2022/10/25 04:38:07;;;;;;;9.88;5.43;;;12.20;99.90;;;;;;2072314;28;20042;-73
2022/10/25 04:39:07;;;;;;;10.25;5.13;;;12.20;99.90;;;;;;2072482;28;20670;-72
2022/10/25 04:40:09;;;;;;;7.65;4.60;;;12.20;99.90;;;;;;2073358;28;20032;-72
2022/10/25 04:41:09;;;;;;;9.68;5.60;;;12.30;99.90;;;;;;2072401;28;20547;-72
2022/10/25 04:42:10;;;;;;;7.18;5.15;;;12.30;99.90;;;;;;2072472;28;20041;-72
2022/10/25 04:43:11;;;;;;;8.85;5.07;;;12.30;99.90;;;;;;2073985;28;20113;-72
2022/10/25 04:44:11;;;;;;;7.38;4.70;;;12.30;99.90;;;;;;2072763;28;20022;-72
2022/10/25 04:45:12;;;;;;;8.65;4.95;;;12.30;99.90;;;;;;2073064;28;20504;-72
2022/10/25 04:46:13;;;;;;;7.28;4.70;;;12.30;99.90;;;;;;2073811;28;20033;-72
2022/10/25 04:47:14;;;;;;;9.77;5.07;;;12.30;99.90;;;;;;2073147;28;20030;-72
2022/10/25 04:48:15;;;;;;;9.18;5.50;;;12.30;99.90;;;;;;2073387;28;20098;-72
2022/10/25 04:49:16;;;;;;;8.77;5.50;;;12.30;99.90;;;;;;2073177;28;20076;-71
2022/10/25 04:50:16;;;;;;;8.75;5.18;;;12.30;99.90;;;;;;2073150;28;20113;-70
2022/10/25 04:51:17;;;;;;;12.25;5.93;;;12.20;99.90;;;;;;2080582;28;20098;-69
2022/10/25 04:52:19;;;;;;;8.40;5.70;;;12.20;99.90;;;;;;2080358;28;20440;-70
2022/10/25 04:53:20;;;;;;;13.95;6.22;;;12.20;99.90;;;;;;2080466;28;20029;-70
2022/10/25 04:54:20;;;;;;;10.30;6.05;;;12.20;99.90;;;;;;2079176;28;20065;-71
2022/10/25 04:55:21;;;;;;;9.02;6.28;;;12.20;99.90;;;;;;2072054;28;20072;-70
2022/10/25 04:56:21;;;;;;;9.90;5.93;;;12.20;99.90;;;;;;2072243;28;20021;-71
2022/10/25 04:57:23;;;;;;;10.13;5.65;;;12.20;99.90;;;;;;2072128;28;20057;-71
2022/10/25 04:58:24;;;;;;;8.48;5.43;;;12.20;99.90;;;;;;2072566;28;20125;-72
2022/10/25 04:59:24;;;;;;;7.55;4.85;;;12.10;99.90;;;;;;2072751;28;20034;-72
2022/10/25 05:00:25;;;;;;;10.75;5.65;;;12.10;99.90;;;;;;2080213;28;20029;-70
2022/10/25 05:01:26;;;;;;;12.43;5.60;;;12.10;99.90;;;;;;2072247;28;20109;-71
2022/10/25 05:02:27;;;;;;;9.18;5.35;;;12.10;99.90;;;;;;2071844;28;20038;-72
2022/10/25 05:03:29;;;;;;;7.88;5.25;;;12.00;99.90;;;;;;2080056;28;20040;-71
2022/10/25 05:04:29;;;;;;;10.27;5.07;;;12.00;99.90;;;;;;2072417;28;20049;-71
2022/10/25 05:05:30;;;;;;;9.13;5.30;;;12.00;99.90;;;;;;2080130;28;20526;-68
2022/10/25 05:06:31;;;;;;;7.80;5.10;;;11.90;99.90;;;;;;2080306;28;20049;-71
2022/10/25 05:07:31;;;;;;;7.57;4.70;;;11.90;99.90;;;;;;2072358;28;20029;-71
2022/10/25 05:08:32;;;;;;;7.07;4.63;;;11.80;99.90;;;;;;2072833;28;20077;-71
2022/10/25 05:09:33;;;;;;;6.63;4.75;;;11.80;99.90;;;;;;2080420;28;20033;-70
2022/10/25 05:10:33;;;;;;;6.93;4.82;;;11.70;99.90;;;;;;2080521;28;20026;-70
2022/10/25 05:11:35;;;;;;;7.03;4.43;;;11.70;99.90;;;;;;2072622;28;20400;-69
2022/10/25 05:12:36;;;;;;;6.05;4.70;;;11.70;99.90;;;;;;2072347;28;20484;-69
2022/10/25 05:13:38;;;;;;;7.43;4.70;;;11.70;99.90;;;;;;2072140;28;20101;-69
2022/10/25 05:14:39;;;;;;;6.28;4.50;;;11.70;99.90;;;;;;2072661;28;20048;-71
2022/10/25 05:15:40;;;;;;;8.70;5.00;;;11.60;99.90;;;;;;2078774;28;20029;-70
2022/10/25 05:16:40;;;;;;;7.32;5.10;;;11.60;99.90;;;;;;2084035;28;20025;-70
2022/10/25 05:17:41;;;;;;;7.32;5.03;;;11.60;99.90;;;;;;2075567;28;20038;-70
2022/10/25 05:18:45;;;;;;;8.45;5.20;;;11.60;99.90;;;;;;2076629;28;20037;-70
2022/10/25 05:19:45;;;;;;;7.35;5.20;;;11.60;99.90;;;;;;2072635;28;20040;-70
2022/10/25 05:20:57;;;;;;;8.52;5.43;;;11.60;99.90;;;;;;2072497;28;20033;-71
2022/10/25 05:21:58;;;;;;;9.68;5.05;;;11.60;99.90;;;;;;2072545;28;20117;-70
2022/10/25 05:22:58;;;;;;;8.45;5.20;;;11.50;99.90;;;;;;2080250;28;20026;-70
2022/10/25 05:24:00;;;;;;;7.72;4.85;;;11.50;99.90;;;;;;2079823;28;20033;-71
2022/10/25 05:25:00;;;;;;;12.20;5.90;;;11.50;99.90;;;;;;2072426;28;20026;-70
2022/10/25 05:26:06;;;;;;;8.20;5.78;;;11.50;99.90;;;;;;2069383;28;20113;-70
2022/10/25 05:27:07;;;;;;;9.65;5.70;;;11.50;99.90;;;;;;2071439;28;20041;-70
2022/10/25 05:28:08;;;;;;;6.82;5.50;;;11.50;99.90;;;;;;2071483;28;20065;-71
2022/10/25 05:29:10;;;;;;;9.57;5.65;;;11.40;99.90;;;;;;2071340;28;20124;-71
2022/10/25 05:30:11;;;;;;;7.80;5.90;;;11.40;99.90;;;;;;2071540;28;20096;-70
2022/10/25 05:31:14;;;;;;;8.20;5.68;;;11.40;99.90;;;;;;2072243;28;20104;-70
2022/10/25 05:32:15;;;;;;;7.30;5.63;;;11.40;99.90;;;;;;2072330;28;20026;-71
2022/10/25 05:33:16;;;;;;;8.68;5.90;;;11.40;99.90;;;;;;2071562;28;20128;-71
2022/10/25 05:34:16;;;;;;;8.73;6.00;;;11.40;99.90;;;;;;2071475;28;20658;-70